Branchburg, New Jersey
Current Conditions -  °F | °C
As of 10:53 AM on Tuesday 21 Oct 2014 (Local Time) from KSMQ Reporting Station
Broken Clouds Broken Clouds  
Wind Chill: 59°   Ceiling: 6500
Heat Index: 59°   Visibility: 10mi
Dew Point: 48°   Wind: 0mph
Humidity: 67%   Direction: NA
Pressure: 29.87"   Gusts: NA
Location:  40.5554°N, 74.6608°W
Report Text: KSMQ 211453Z AUTO 00000KT 10SM FEW050 BKN065 15/09 A2987 RMK AO2 SLP115 60001 T01500089 58006
Loading
Personal Weather Stations






























Interactive Weather Map
Tropical Storm Tracking
New forecast layout! Learn more

10-Day Weather Forecast

Advertisements
Track Severe Weather on mobile